Time;durP1;ratioP1;P1;durP2;ratioP2;P2;SDS_P1;SDS_P2;PMS_P1;PMS_P2;Temp;Humidity;BMP_temperature;BMP_pressure;BME280_temperature;BME280_humidity;BME280_pressure;Samples;Min_cycle;Max_cycle;Signal;HPM_P1;HPM_P2
2021/10/03 00:02:23;;;;;;;16.12;10.23;;;;;;;6.02;80.93;98381.95;1745324;82;21019;-80
2021/10/03 00:04:51;;;;;;;18.55;10.10;;;;;;;6.00;81.11;98383.28;1756480;80;21022;-79
2021/10/03 00:07:21;;;;;;;15.20;10.43;;;;;;;6.00;80.58;98385.02;1755953;82;21053;-78
2021/10/03 00:09:51;;;;;;;16.60;10.70;;;;;;;5.95;80.57;98380.65;1755008;82;21158;-79
2021/10/03 00:12:20;;;;;;;16.82;10.13;;;;;;;5.94;81.82;98378.91;1750052;81;21030;-78
2021/10/03 00:14:47;;;;;;;15.75;9.80;;;;;;;5.92;80.76;98379.37;1757023;80;21004;-78
2021/10/03 00:17:14;;;;;;;14.33;9.33;;;;;;;5.89;80.85;98388.58;1730861;82;21038;-79
2021/10/03 00:19:40;;;;;;;16.20;9.20;;;;;;;5.87;82.21;98390.78;1749140;82;21479;-79
2021/10/03 00:22:08;;;;;;;17.57;9.78;;;;;;;5.84;81.24;98386.84;1746993;82;20979;-79
2021/10/03 00:24:34;;;;;;;16.52;9.60;;;;;;;5.83;81.09;98387.30;1768804;81;21018;-79
2021/10/03 00:27:01;;;;;;;14.47;9.33;;;;;;;5.83;81.53;98389.03;1748544;81;21025;-79
2021/10/03 00:29:29;;;;;;;15.20;8.95;;;;;;;5.80;81.92;98388.19;1751897;82;21432;-79
2021/10/03 00:31:56;;;;;;;15.38;8.25;;;;;;;5.78;83.47;98388.61;1761748;81;20968;-79
2021/10/03 00:34:23;;;;;;;13.35;8.55;;;;;;;5.75;82.13;98383.81;1750630;81;21416;-80
2021/10/03 00:36:49;;;;;;;13.65;8.48;;;;;;;5.76;81.73;98392.13;1744246;82;20994;-79
2021/10/03 00:39:16;;;;;;;17.02;9.23;;;;;;;5.75;81.94;98399.59;1755047;81;20969;-79
2021/10/03 00:41:43;;;;;;;18.65;9.18;;;;;;;5.76;81.49;98389.50;1761842;81;20977;-79
2021/10/03 00:44:10;;;;;;;14.18;9.35;;;;;;;5.79;81.62;98400.02;1752683;81;21022;-79
2021/10/03 00:46:37;;;;;;;21.95;10.72;;;;;;;5.75;81.65;98400.91;1744211;81;20997;-79
2021/10/03 00:49:04;;;;;;;18.92;10.30;;;;;;;5.73;81.92;98403.99;1752955;82;20985;-79
2021/10/03 00:51:30;;;;;;;18.25;10.58;;;;;;;5.74;82.28;98405.73;1752968;82;20991;-79
2021/10/03 00:53:57;;;;;;;17.57;8.95;;;;;;;5.72;82.31;98404.88;1749283;81;21010;-79
2021/10/03 00:56:24;;;;;;;18.90;10.05;;;;;;;5.75;82.66;98402.22;1764344;81;21034;-80
2021/10/03 00:58:51;;;;;;;15.08;9.83;;;;;;;5.79;82.64;98403.54;1752963;82;21478;-79
2021/10/03 01:01:18;;;;;;;17.92;9.70;;;;;;;5.86;83.05;98394.30;1754893;79;20979;-79
2021/10/03 01:03:45;;;;;;;16.87;9.43;;;;;;;5.88;82.58;98406.98;1746562;82;21404;-79
2021/10/03 01:06:11;;;;;;;19.70;10.53;;;;;;;5.88;82.59;98403.94;1746512;82;21030;-79
2021/10/03 01:08:38;;;;;;;18.35;10.23;;;;;;;5.87;82.50;98403.94;1755146;80;21032;-79
2021/10/03 01:11:05;;;;;;;15.65;9.80;;;;;;;5.87;82.59;98398.25;1750798;81;21472;-79
2021/10/03 01:13:32;;;;;;;14.80;10.15;;;;;;;5.90;82.70;98403.94;1739375;82;21396;-79
2021/10/03 01:16:00;;;;;;;16.52;9.88;;;;;;;5.91;82.54;98408.30;1753070;82;21430;-79
2021/10/03 01:18:27;;;;;;;17.80;10.03;;;;;;;5.87;82.25;98415.77;1746755;82;21514;-79
2021/10/03 01:20:53;;;;;;;17.20;10.65;;;;;;;5.75;81.93;98411.42;1758513;80;20966;-79
2021/10/03 01:23:20;;;;;;;19.50;10.18;;;;;;;5.68;81.90;98415.40;1753089;82;21011;-79
2021/10/03 01:25:51;;;;;;;20.70;10.72;;;;;;;5.64;82.00;98411.45;1736698;83;21030;-79
2021/10/03 01:28:19;;;;;;;18.82;11.38;;;;;;;5.56;81.82;98404.91;1752274;82;21420;-79
2021/10/03 01:30:50;;;;;;;17.87;10.35;;;;;;;5.50;81.67;98407.13;1756147;80;21453;-79
2021/10/03 01:33:18;;;;;;;18.17;10.20;;;;;;;5.46;81.62;98400.55;1736742;81;20975;-79
2021/10/03 01:35:46;;;;;;;18.40;11.03;;;;;;;5.42;81.40;98403.63;1750332;82;20950;-79
2021/10/03 01:38:15;;;;;;;18.80;10.38;;;;;;;5.36;81.23;98400.56;1736421;82;21025;-79
2021/10/03 01:40:44;;;;;;;14.68;9.85;;;;;;;5.31;81.54;98394.91;1755389;80;20977;-79
2021/10/03 01:43:12;;;;;;;15.78;10.40;;;;;;;5.28;81.14;98393.16;1738238;81;20995;-79
2021/10/03 01:45:40;;;;;;;18.75;10.95;;;;;;;5.22;81.14;98406.28;1750439;82;21402;-79
2021/10/03 01:48:15;;;;;;;20.92;10.85;;;;;;;5.16;81.21;98412.44;1750511;82;21089;-79
2021/10/03 01:50:49;;;;;;;19.10;10.68;;;;;;;5.10;81.21;98405.42;1747980;81;20982;-79
2021/10/03 01:53:29;;;;;;;22.37;11.10;;;;;;;5.06;81.36;98398.42;1766446;81;21730;-79
2021/10/03 01:55:59;;;;;;;17.75;11.48;;;;;;;5.04;81.77;98399.30;1766634;81;20983;-80
2021/10/03 01:58:30;;;;;;;19.60;10.85;;;;;;;4.98;81.38;98404.99;1766901;81;21442;-80
2021/10/03 02:01:02;;;;;;;16.95;10.43;;;;;;;4.93;81.44;98401.50;1749726;81;21024;-79
2021/10/03 02:03:29;;;;;;;21.70;12.88;;;;;;;4.88;81.58;98397.57;1756862;82;21039;-79
2021/10/03 02:05:55;;;;;;;18.20;11.15;;;;;;;4.84;82.05;98400.18;1757049;81;21450;-79
2021/10/03 02:08:22;;;;;;;19.05;10.48;;;;;;;4.82;81.62;98400.63;1757192;81;20969;-79
2021/10/03 02:10:52;;;;;;;19.52;11.38;;;;;;;4.80;81.84;98403.25;1742395;81;21014;-79
2021/10/03 02:13:22;;;;;;;19.98;11.12;;;;;;;4.77;82.77;98403.70;1776919;80;20983;-79
2021/10/03 02:15:49;;;;;;;14.25;9.98;;;;;;;4.74;82.01;98397.55;1757163;81;21500;-79
2021/10/03 02:18:19;;;;;;;17.52;10.55;;;;;;;4.71;82.27;98397.99;1750522;82;21421;-79
2021/10/03 02:20:54;;;;;;;20.62;10.93;;;;;;;4.69;81.96;98399.75;1743135;81;21002;-79
2021/10/03 02:23:21;;;;;;;22.10;11.53;;;;;;;4.67;82.05;98408.05;1742077;81;20953;-79
2021/10/03 02:25:48;;;;;;;18.32;11.28;;;;;;;4.57;82.25;98404.55;1757020;81;21438;-79
2021/10/03 02:28:19;;;;;;;20.00;12.13;;;;;;;4.54;82.39;98408.05;1756927;81;20969;-79
2021/10/03 02:30:51;;;;;;;18.15;11.70;;;;;;;4.52;82.64;98403.22;1742760;81;21729;-79
2021/10/03 02:33:20;;;;;;;20.23;11.73;;;;;;;4.51;82.40;98404.09;1776245;80;20955;-79
2021/10/03 02:35:47;;;;;;;16.65;10.40;;;;;;;4.47;82.23;98411.52;1757130;82;21028;-79
2021/10/03 02:38:18;;;;;;;18.45;10.08;;;;;;;4.46;82.53;98402.80;1756955;82;21028;-79
2021/10/03 02:40:48;;;;;;;21.87;10.88;;;;;;;4.43;82.48;98405.82;1743531;81;20951;-79
2021/10/03 02:43:15;;;;;;;17.35;9.95;;;;;;;4.42;82.32;98410.22;1755579;81;20972;-79
2021/10/03 02:45:50;;;;;;;19.07;9.45;;;;;;;4.41;82.25;98407.16;1750697;82;21071;-79
2021/10/03 02:48:21;;;;;;;16.82;9.43;;;;;;;4.36;82.56;98403.62;1757184;81;21027;-79
2021/10/03 02:50:50;;;;;;;15.55;9.48;;;;;;;4.33;82.72;98411.50;1750975;81;21060;-80
2021/10/03 02:53:19;;;;;;;18.40;8.98;;;;;;;4.36;82.73;98415.00;1756937;81;21012;-79
2021/10/03 02:55:46;;;;;;;16.25;8.98;;;;;;;4.36;83.23;98416.31;1757046;81;21044;-79
2021/10/03 02:58:13;;;;;;;18.42;9.60;;;;;;;4.37;83.20;98423.77;1757064;81;20949;-79
2021/10/03 03:00:43;;;;;;;14.50;8.83;;;;;;;4.42;83.21;98416.78;1750897;80;20985;-80
2021/10/03 03:03:11;;;;;;;11.63;8.33;;;;;;;4.49;83.33;98421.15;1756892;81;21425;-79
2021/10/03 03:05:38;;;;;;;14.83;8.58;;;;;;;4.56;83.60;98419.41;1756857;81;21434;-79
2021/10/03 03:08:05;;;;;;;14.03;7.75;;;;;;;4.62;83.58;98423.35;1757069;82;20977;-79
2021/10/03 03:10:33;;;;;;;12.63;7.87;;;;;;;4.61;83.30;98424.23;1745472;81;20975;-79
2021/10/03 03:13:01;;;;;;;14.28;7.97;;;;;;;4.64;83.30;98421.19;1749254;82;20965;-79
2021/10/03 03:15:29;;;;;;;13.70;8.15;;;;;;;4.67;83.90;98423.37;1756998;81;21008;-79
2021/10/03 03:17:55;;;;;;;19.70;7.87;;;;;;;4.70;83.94;98420.73;1757057;81;20965;-79
2021/10/03 03:20:22;;;;;;;13.38;7.97;;;;;;;4.68;84.15;98416.36;1746962;81;21099;-79
2021/10/03 03:22:49;;;;;;;12.93;8.05;;;;;;;4.69;84.37;98422.07;1739472;81;21003;-79
2021/10/03 03:25:16;;;;;;;13.68;8.40;;;;;;;4.58;85.03;98423.36;1750116;81;21406;-79
2021/10/03 03:27:43;;;;;;;15.25;8.70;;;;;;;4.57;84.54;98429.03;1741765;81;21427;-79
2021/10/03 03:30:13;;;;;;;14.45;8.85;;;;;;;4.48;84.24;98429.02;1767974;81;20975;-79
2021/10/03 03:32:40;;;;;;;13.18;8.08;;;;;;;4.45;84.19;98426.41;1752717;82;20956;-79
2021/10/03 03:35:09;;;;;;;15.32;8.55;;;;;;;4.45;84.01;98420.70;1777135;81;21037;-79
2021/10/03 03:37:36;;;;;;;15.63;8.60;;;;;;;4.43;83.61;98425.51;1755642;80;21356;-79
2021/10/03 03:40:07;;;;;;;18.50;8.88;;;;;;;4.36;83.59;98418.94;1773695;81;21035;-79
2021/10/03 03:42:33;;;;;;;17.40;8.33;;;;;;;4.32;83.35;98422.87;1777217;81;20962;-79
2021/10/03 03:45:00;;;;;;;13.88;8.38;;;;;;;4.25;83.27;98424.61;1778310;81;21459;-79
2021/10/03 03:47:26;;;;;;;14.63;9.00;;;;;;;4.19;83.02;98424.14;1778435;81;21049;-79
2021/10/03 03:49:53;;;;;;;17.37;8.83;;;;;;;4.11;83.19;98425.00;1766198;80;20985;-79
2021/10/03 03:52:20;;;;;;;16.60;8.73;;;;;;;4.07;83.19;98429.36;1778471;81;21436;-79
2021/10/03 03:54:48;;;;;;;13.62;8.65;;;;;;;4.03;83.16;98425.83;1778276;80;20986;-79
2021/10/03 03:57:15;;;;;;;14.58;9.38;;;;;;;4.00;83.03;98423.64;1769190;81;21471;-79
2021/10/03 03:59:41;;;;;;;15.23;9.05;;;;;;;3.98;83.01;98432.80;1748673;80;21068;-80
2021/10/03 04:02:07;;;;;;;16.85;8.75;;;;;;;3.95;83.12;98433.67;1747738;81;20962;-79
2021/10/03 04:04:34;;;;;;;14.70;8.75;;;;;;;3.89;83.15;98436.27;1747752;82;20974;-79
2021/10/03 04:07:00;;;;;;;16.25;8.53;;;;;;;3.87;83.48;98430.16;1750902;81;21409;-79
2021/10/03 04:09:27;;;;;;;21.30;9.55;;;;;;;3.87;83.72;98435.83;1749880;82;20979;-79
2021/10/03 04:11:53;;;;;;;13.75;8.90;;;;;;;3.85;84.01;98437.13;1767042;81;21003;-79
2021/10/03 04:14:19;;;;;;;15.95;9.20;;;;;;;3.85;83.74;98442.83;1767013;81;21015;-79
2021/10/03 04:16:46;;;;;;;12.80;8.50;;;;;;;3.85;83.45;98443.67;1766820;81;21503;-79
2021/10/03 04:19:12;;;;;;;14.50;8.70;;;;;;;3.81;83.66;98442.80;1755011;81;20961;-79
2021/10/03 04:21:39;;;;;;;15.28;8.78;;;;;;;3.81;84.08;98431.00;1761620;81;21016;-79
2021/10/03 04:24:05;;;;;;;16.90;9.28;;;;;;;3.82;84.32;98441.92;1761473;81;21031;-79
2021/10/03 04:26:32;;;;;;;15.18;8.33;;;;;;;3.84;83.74;98449.80;1761603;81;21505;-79
2021/10/03 04:28:58;;;;;;;12.90;8.08;;;;;;;3.82;83.60;98443.69;1764626;81;21031;-79
2021/10/03 04:31:26;;;;;;;13.78;8.03;;;;;;;3.82;83.58;98443.23;1758549;81;21040;-79
2021/10/03 04:33:55;;;;;;;16.20;8.55;;;;;;;3.82;83.95;98455.03;1736333;82;21026;-79
2021/10/03 04:36:22;;;;;;;16.05;7.92;;;;;;;3.79;83.36;98452.38;1737074;82;21082;-79
2021/10/03 04:38:48;;;;;;;13.53;8.00;;;;;;;3.77;83.46;98446.27;1725383;82;21003;-79
2021/10/03 04:41:15;;;;;;;13.28;7.62;;;;;;;3.78;83.47;98451.94;1756211;81;20961;-79
2021/10/03 04:43:44;;;;;;;13.88;8.38;;;;;;;3.79;84.54;98449.76;1739146;82;21508;-79
2021/10/03 04:46:12;;;;;;;12.65;7.85;;;;;;;3.81;83.50;98449.77;1739047;82;21018;-79
2021/10/03 04:48:39;;;;;;;12.47;7.70;;;;;;;3.78;83.44;98453.25;1756519;82;21011;-79
2021/10/03 04:51:05;;;;;;;13.70;8.23;;;;;;;3.76;83.46;98446.25;1756883;82;21008;-79
2021/10/03 04:53:32;;;;;;;14.20;8.08;;;;;;;3.73;83.54;98445.80;1768846;81;21022;-79
2021/10/03 04:55:58;;;;;;;16.55;8.58;;;;;;;3.74;83.46;98444.06;1775638;81;21448;-79
2021/10/03 04:58:25;;;;;;;13.28;8.38;;;;;;;3.74;83.48;98449.31;1775315;81;20999;-79
2021/10/03 05:00:52;;;;;;;13.70;8.33;;;;;;;3.73;83.61;98451.05;1746594;81;21062;-79
2021/10/03 05:03:19;;;;;;;15.10;8.35;;;;;;;3.71;83.93;98452.80;1771903;81;21468;-79
2021/10/03 05:05:46;;;;;;;12.47;7.78;;;;;;;3.76;84.21;98456.31;1775236;81;20979;-79
2021/10/03 05:08:12;;;;;;;13.43;8.28;;;;;;;3.83;84.08;98457.23;1759442;81;21029;-79
2021/10/03 05:10:40;;;;;;;11.70;7.65;;;;;;;3.92;84.13;98462.95;1744951;82;20978;-79
2021/10/03 05:13:06;;;;;;;12.95;8.35;;;;;;;4.00;84.44;98466.91;1768928;81;21388;-79
2021/10/03 05:15:33;;;;;;;12.40;7.47;;;;;;;4.07;84.34;98468.25;1775041;81;21026;-79
2021/10/03 05:17:59;;;;;;;16.77;7.97;;;;;;;4.16;84.51;98471.80;1762917;81;20974;-79
2021/10/03 05:20:26;;;;;;;15.08;9.45;;;;;;;4.25;84.55;98477.08;1744804;82;21014;-79
2021/10/03 05:22:52;;;;;;;10.93;7.37;;;;;;;4.31;84.70;98469.22;1765760;80;21023;-79
2021/10/03 05:25:19;;;;;;;11.85;7.25;;;;;;;4.40;84.93;98479.32;1775565;81;21026;-79
2021/10/03 05:27:46;;;;;;;10.25;6.90;;;;;;;4.45;84.95;98472.33;1775310;81;21014;-79
2021/10/03 05:30:13;;;;;;;10.82;6.80;;;;;;;4.47;85.37;98474.09;1757606;80;21014;-79
2021/10/03 05:32:41;;;;;;;9.98;6.72;;;;;;;4.50;85.58;98469.28;1762741;81;21415;-80
2021/10/03 05:35:09;;;;;;;12.90;7.37;;;;;;;4.44;85.69;98474.07;1775491;81;20951;-79
2021/10/03 05:37:35;;;;;;;12.00;7.62;;;;;;;4.47;85.68;98475.83;1775475;81;21010;-79
2021/10/03 05:40:05;;;;;;;14.50;7.60;;;;;;;4.51;85.59;98474.97;1775421;81;20986;-79
2021/10/03 05:42:31;;;;;;;15.20;7.95;;;;;;;4.52;85.49;98473.23;1770545;81;21002;-79
2021/10/03 05:44:57;;;;;;;13.18;7.28;;;;;;;4.53;85.37;98471.04;1758065;81;20991;-79
2021/10/03 05:47:24;;;;;;;12.03;7.12;;;;;;;4.55;85.42;98479.36;1775611;81;21408;-79
2021/10/03 05:49:50;;;;;;;13.85;7.72;;;;;;;4.60;85.38;98473.68;1775618;81;20999;-79
2021/10/03 05:52:17;;;;;;;18.00;8.48;;;;;;;4.65;85.03;98474.13;1763309;81;21018;-79
2021/10/03 05:54:43;;;;;;;12.07;7.00;;;;;;;4.66;85.43;98466.69;1765707;81;21361;-79
2021/10/03 05:57:10;;;;;;;9.85;6.87;;;;;;;4.66;85.12;98470.20;1775439;81;21046;-79
2021/10/03 05:59:36;;;;;;;12.13;7.78;;;;;;;4.65;85.42;98462.31;1775601;81;21065;-79
2021/10/03 06:02:03;;;;;;;10.80;6.72;;;;;;;4.66;86.11;98470.63;1762736;81;21002;-79
2021/10/03 06:04:29;;;;;;;12.25;7.60;;;;;;;4.68;85.97;98460.98;1744800;82;21069;-79
2021/10/03 06:06:57;;;;;;;16.40;7.42;;;;;;;4.69;86.41;98462.77;1744913;82;20998;-79
2021/10/03 06:09:24;;;;;;;13.53;7.37;;;;;;;4.74;86.60;98461.87;1744718;82;21011;-79
2021/10/03 06:11:51;;;;;;;12.63;7.67;;;;;;;4.79;87.00;98467.58;1750090;81;20952;-79
2021/10/03 06:14:17;;;;;;;11.25;7.25;;;;;;;4.86;85.61;98470.67;1759868;81;21002;-79
2021/10/03 06:16:44;;;;;;;12.78;7.30;;;;;;;4.91;85.40;98471.55;1745496;81;21022;-80
2021/10/03 06:19:11;;;;;;;10.78;7.58;;;;;;;4.96;85.05;98459.72;1775548;81;21046;-80
2021/10/03 06:21:39;;;;;;;11.57;7.10;;;;;;;5.02;85.02;98461.03;1775649;81;21030;-80
2021/10/03 06:24:07;;;;;;;14.65;8.23;;;;;;;5.10;85.18;98459.71;1760098;80;21034;-80
2021/10/03 06:26:35;;;;;;;16.60;8.45;;;;;;;5.20;84.73;98457.98;1744843;82;21025;-80
2021/10/03 06:29:03;;;;;;;14.20;8.03;;;;;;;5.26;84.75;98460.17;1756463;81;21494;-79
2021/10/03 06:31:30;;;;;;;14.25;7.58;;;;;;;5.33;84.86;98455.78;1775429;81;21447;-80
2021/10/03 06:33:57;;;;;;;13.15;8.25;;;;;;;5.42;84.63;98457.52;1775403;81;21042;-80
2021/10/03 06:36:23;;;;;;;13.48;8.05;;;;;;;5.52;85.16;98454.45;1760828;81;20951;-80
2021/10/03 06:38:50;;;;;;;13.40;8.45;;;;;;;5.62;84.93;98456.19;1746299;81;21006;-80
2021/10/03 06:41:16;;;;;;;14.73;9.78;;;;;;;5.71;84.45;98450.44;1775511;81;21038;-80
2021/10/03 06:43:43;;;;;;;12.63;8.08;;;;;;;5.79;84.89;98449.56;1773924;81;21471;-80
2021/10/03 06:46:09;;;;;;;15.60;8.90;;;;;;;5.90;84.66;98451.28;1745180;82;21002;-80
2021/10/03 06:48:36;;;;;;;13.75;7.87;;;;;;;6.00;84.83;98449.48;1744896;82;20999;-80
2021/10/03 06:51:03;;;;;;;14.70;8.50;;;;;;;6.11;84.37;98446.84;1744692;82;20959;-80
2021/10/03 06:53:31;;;;;;;13.08;8.58;;;;;;;6.20;84.52;98446.35;1748376;81;21029;-80
2021/10/03 06:55:58;;;;;;;16.07;10.20;;;;;;;6.32;84.31;98444.56;1755609;81;20994;-80
2021/10/03 06:58:25;;;;;;;15.38;9.85;;;;;;;6.42;84.10;98444.94;1775305;81;21385;-80
2021/10/03 07:00:51;;;;;;;15.32;9.38;;;;;;;6.55;84.01;98452.76;1775433;81;21042;-80
2021/10/03 07:03:20;;;;;;;18.55;9.60;;;;;;;6.65;83.96;98448.33;1775429;81;20994;-80
2021/10/03 07:05:46;;;;;;;16.37;9.80;;;;;;;6.77;83.68;98458.77;1772795;80;21042;-80
2021/10/03 07:08:12;;;;;;;16.27;9.40;;;;;;;6.88;83.48;98461.33;1744844;82;20966;-80
2021/10/03 07:10:41;;;;;;;13.22;8.80;;;;;;;7.00;83.29;98454.67;1753910;81;20998;-80
2021/10/03 07:13:07;;;;;;;16.97;9.75;;;;;;;7.12;83.38;98448.43;1775262;81;21017;-80
2021/10/03 07:15:34;;;;;;;14.95;9.20;;;;;;;7.26;83.12;98454.89;1754813;81;21384;-80
2021/10/03 07:18:00;;;;;;;15.28;9.55;;;;;;;7.38;82.98;98454.34;1744937;82;21050;-80
2021/10/03 07:20:27;;;;;;;15.72;9.48;;;;;;;7.50;82.84;98457.31;1744783;82;21100;-80
2021/10/03 07:22:53;;;;;;;15.58;10.45;;;;;;;7.61;82.72;98459.42;1744844;82;21416;-80
2021/10/03 07:25:20;;;;;;;48.05;23.95;;;;;;;7.74;82.55;98455.31;1755877;81;21016;-80
2021/10/03 07:27:47;;;;;;;19.92;10.85;;;;;;;7.86;82.26;98451.67;1764909;81;21032;-80
2021/10/03 07:30:14;;;;;;;16.07;10.13;;;;;;;7.99;82.09;98459.88;1753745;80;21034;-81
2021/10/03 07:32:40;;;;;;;14.80;9.80;;;;;;;8.11;81.90;98456.23;1753303;81;21041;-81
2021/10/03 07:35:08;;;;;;;19.92;12.37;;;;;;;8.24;81.58;98458.70;1746997;82;21018;-81
2021/10/03 07:37:34;;;;;;;20.65;12.13;;;;;;;8.36;81.55;98458.56;1767884;81;21389;-81
2021/10/03 07:40:03;;;;;;;23.22;12.30;;;;;;;8.50;81.16;98457.04;1748370;82;21020;-81
2021/10/03 07:42:30;;;;;;;20.82;12.70;;;;;;;8.63;81.07;98454.27;1749759;82;21025;-81
2021/10/03 07:44:57;;;;;;;24.05;12.88;;;;;;;8.77;80.89;98451.42;1738078;82;20977;-81
2021/10/03 07:47:23;;;;;;;19.70;12.10;;;;;;;8.88;80.36;98453.44;1749855;81;21048;-81
2021/10/03 07:49:50;;;;;;;20.57;12.88;;;;;;;9.00;80.11;98445.77;1751803;81;21396;-80
2021/10/03 07:52:16;;;;;;;25.82;16.82;;;;;;;9.08;80.05;98445.21;1753968;81;21013;-80
2021/10/03 07:54:43;;;;;;;27.62;17.92;;;;;;;9.22;79.44;98452.91;1749892;81;21012;-80
2021/10/03 07:57:12;;;;;;;29.98;18.00;;;;;;;9.34;79.15;98452.30;1750137;81;21476;-80
2021/10/03 07:59:38;;;;;;;40.75;18.85;;;;;;;9.50;77.67;98454.20;1748551;82;20988;-81
2021/10/03 08:02:04;;;;;;;42.50;18.65;;;;;;;9.70;78.00;98454.28;1754590;80;21022;-80
2021/10/03 08:04:31;;;;;;;98.87;21.00;;;;;;;9.85;78.44;98450.48;1723429;83;21464;-79
2021/10/03 08:06:57;;;;;;;32.90;17.62;;;;;;;9.96;78.14;98453.79;1746734;82;21014;-80
2021/10/03 08:09:24;;;;;;;29.02;17.00;;;;;;;10.06;76.09;98450.52;1753130;81;21040;-80
2021/10/03 08:11:50;;;;;;;33.15;15.53;;;;;;;10.15;76.81;98446.36;1753260;82;21026;-81
2021/10/03 08:14:17;;;;;;;28.35;15.98;;;;;;;10.26;76.86;98447.91;1751925;81;21018;-79
2021/10/03 08:16:43;;;;;;;28.98;16.07;;;;;;;10.36;76.38;98444.16;1753342;82;21013;-79
2021/10/03 08:19:10;;;;;;;29.82;15.10;;;;;;;10.46;76.38;98436.05;1746676;82;21005;-79
2021/10/03 08:21:36;;;;;;;23.80;16.48;;;;;;;10.60;76.55;98434.41;1762255;81;20968;-79
2021/10/03 08:24:03;;;;;;;26.27;16.23;;;;;;;10.74;76.96;98430.09;1734716;82;20963;-79
2021/10/03 08:26:31;;;;;;;22.95;14.83;;;;;;;10.85;76.43;98427.20;1723584;83;21434;-79
2021/10/03 08:28:58;;;;;;;25.00;15.25;;;;;;;10.96;76.59;98426.48;1775397;80;21383;-80
2021/10/03 08:31:24;;;;;;;22.30;15.15;;;;;;;11.05;76.47;98416.13;1763140;80;21061;-80
2021/10/03 08:33:51;;;;;;;24.67;15.53;;;;;;;11.16;76.07;98412.74;1750644;80;20966;-80
2021/10/03 08:36:17;;;;;;;19.73;13.90;;;;;;;11.25;76.02;98407.65;1736435;82;21500;-80
2021/10/03 08:38:44;;;;;;;19.57;12.73;;;;;;;11.35;75.96;98410.95;1752663;80;20954;-80
2021/10/03 08:41:11;;;;;;;19.05;12.37;;;;;;;11.42;75.83;98401.05;1752717;79;20983;-80
2021/10/03 08:43:37;;;;;;;23.75;12.93;;;;;;;11.52;74.79;98401.66;1736536;82;20955;-80
2021/10/03 08:46:06;;;;;;;20.50;12.47;;;;;;;11.60;74.38;98403.66;1750720;82;21025;-80
2021/10/03 08:48:33;;;;;;;16.67;11.68;;;;;;;11.68;74.12;98399.47;1752763;80;20976;-80
2021/10/03 08:51:00;;;;;;;21.77;12.10;;;;;;;11.77;73.54;98397.89;1743857;81;21018;-79
2021/10/03 08:53:27;;;;;;;23.10;11.70;;;;;;;11.89;73.57;98395.34;1750563;82;20990;-80
2021/10/03 08:55:56;;;;;;;19.02;10.18;;;;;;;11.96;73.07;98395.56;1736462;82;21448;-80
2021/10/03 08:58:23;;;;;;;19.05;10.78;;;;;;;12.03;72.79;98392.75;1750211;82;21021;-79
2021/10/03 09:00:51;;;;;;;37.98;23.45;;;;;;;12.12;72.42;98389.83;1743435;82;21020;-79
2021/10/03 09:03:18;;;;;;;20.65;13.60;;;;;;;12.22;72.10;98386.46;1750731;82;21082;-79
2021/10/03 09:05:54;;;;;;;20.70;11.50;;;;;;;12.33;70.61;98383.48;1756939;82;21017;-79
2021/10/03 09:08:24;;;;;;;13.65;9.50;;;;;;;12.42;71.41;98395.17;1750664;82;21015;-80
2021/10/03 09:11:04;;;;;;;15.70;7.95;;;;;;;12.52;71.26;98396.62;1757015;81;21115;-79
2021/10/03 09:13:36;;;;;;;13.70;9.18;;;;;;;12.63;70.60;98398.07;1736873;82;21397;-79
2021/10/03 09:16:14;;;;;;;14.10;8.53;;;;;;;12.75;69.53;98384.36;1778962;80;20955;-79
2021/10/03 09:18:59;;;;;;;14.73;8.63;;;;;;;12.91;69.18;98383.86;1764465;81;21476;-79
2021/10/03 09:21:36;;;;;;;11.08;7.83;;;;;;;13.02;69.09;98385.73;1755167;81;21000;-79
2021/10/03 09:24:10;;;;;;;11.10;6.87;;;;;;;13.12;67.29;98382.77;1754342;81;21040;-79
2021/10/03 09:26:38;;;;;;;;;;;;;;;13.22;66.56;98376.65;1756743;81;21044;-78
2021/10/03 09:29:30;;;;;;;8.28;6.00;;;;;;;13.32;67.14;98376.73;1754151;82;20326;-78
2021/10/03 09:32:17;;;;;;;9.23;5.37;;;;;;;13.40;64.65;98374.69;1737825;81;21046;-79
2021/10/03 09:34:49;;;;;;;8.95;5.72;;;;;;;13.55;64.97;98375.98;1736719;82;21396;-79
2021/10/03 09:37:32;;;;;;;11.05;5.78;;;;;;;13.68;64.77;98375.53;1755131;81;20975;-79
2021/10/03 09:40:12;;;;;;;11.12;6.42;;;;;;;13.80;62.58;98368.44;1766905;81;20999;-79
2021/10/03 09:42:39;;;;;;;8.95;5.55;;;;;;;13.95;61.72;98370.98;1756589;81;20955;-79
2021/10/03 09:45:13;;;;;;;7.72;4.72;;;;;;;14.08;62.47;98365.20;1736955;82;21046;-79
2021/10/03 09:47:44;;;;;;;8.15;4.75;;;;;;;14.23;60.01;98361.94;1736588;82;21436;-79
2021/10/03 09:50:14;;;;;;;9.15;5.28;;;;;;;14.38;61.28;98361.80;1721715;83;20968;-79
2021/10/03 09:52:42;;;;;;;7.58;4.80;;;;;;;14.50;61.56;98361.77;1753084;81;21046;-78
2021/10/03 09:55:13;;;;;;;6.62;5.30;;;;;;;14.59;60.63;98356.56;1744323;81;21421;-79
2021/10/03 09:57:40;;;;;;;6.05;4.78;;;;;;;14.69;60.21;98351.70;1761573;81;21048;-79
2021/10/03 10:00:08;;;;;;;11.78;5.30;;;;;;;14.80;60.20;98356.64;1750570;81;21025;-79
2021/10/03 10:02:35;;;;;;;11.40;5.83;;;;;;;14.90;59.85;98357.99;1744117;82;21459;-78
2021/10/03 10:05:02;;;;;;;7.92;5.08;;;;;;;15.02;59.15;98351.28;1743963;82;21057;-79
2021/10/03 10:07:29;;;;;;;7.00;5.37;;;;;;;15.14;58.69;98342.34;1757886;81;21423;-79
2021/10/03 10:09:55;;;;;;;4.87;4.37;;;;;;;15.22;57.85;98329.53;1748855;81;21054;-79
2021/10/03 10:12:24;;;;;;;9.05;5.08;;;;;;;15.32;58.44;98331.33;1774682;81;21018;-79
2021/10/03 10:15:01;;;;;;;6.83;5.05;;;;;;;15.40;57.72;98337.20;1774580;81;21006;-79
2021/10/03 10:17:40;;;;;;;6.67;4.33;;;;;;;15.51;56.45;98330.52;1777940;81;21420;-79
2021/10/03 10:20:24;;;;;;;10.15;4.90;;;;;;;15.61;56.65;98330.50;1750534;80;21438;-79
2021/10/03 10:23:01;;;;;;;8.83;5.37;;;;;;;15.73;56.97;98321.55;1765036;81;20935;-79
2021/10/03 10:25:45;;;;;;;8.80;5.08;;;;;;;15.82;56.19;98323.81;1778089;81;21051;-79
2021/10/03 10:28:30;;;;;;;;;;;;;;;16.09;57.08;98315.47;1756685;81;20986;-79
2021/10/03 10:31:14;;;;;;;8.13;5.20;;;;;;;17.01;57.54;98308.34;1749447;82;20446;-79
2021/10/03 10:34:01;;;;;;;7.35;4.87;;;;;;;18.22;54.50;98307.84;1753545;81;21022;-80
2021/10/03 10:36:32;;;;;;;6.83;5.45;;;;;;;19.48;50.38;98295.19;1754338;81;20986;-79
2021/10/03 10:39:14;;;;;;;8.48;4.70;;;;;;;20.71;45.84;98285.23;1772010;80;21034;-80
2021/10/03 10:41:48;;;;;;;8.13;4.60;;;;;;;21.82;44.53;98281.80;1753065;81;21073;-80
2021/10/03 10:44:34;;;;;;;5.33;4.55;;;;;;;22.87;42.21;98273.78;1753399;80;21061;-80
2021/10/03 10:47:15;;;;;;;5.78;5.10;;;;;;;23.83;36.91;98266.86;1737985;80;21401;-80
2021/10/03 10:49:49;;;;;;;5.78;4.53;;;;;;;24.59;36.39;98260.73;1779130;80;21520;-80
2021/10/03 10:52:25;;;;;;;8.60;4.35;;;;;;;25.31;36.26;98252.89;1779288;81;21465;-80
2021/10/03 10:55:21;;;;;;;9.73;5.40;;;;;;;26.00;35.02;98258.31;1778980;80;21144;-80
2021/10/03 10:58:02;;;;;;;7.70;4.75;;;;;;;26.83;34.42;98254.48;1767293;81;20978;-80
2021/10/03 11:00:33;;;;;;;8.35;6.15;;;;;;;27.68;31.05;98245.64;1753332;82;21544;-80
2021/10/03 11:03:04;;;;;;;5.78;5.10;;;;;;;28.19;31.93;98238.47;1753128;82;21093;-80
2021/10/03 11:05:44;;;;;;;8.03;4.80;;;;;;;28.73;31.17;98239.06;1753249;82;21431;-80
2021/10/03 11:08:17;;;;;;;7.12;5.20;;;;;;;28.91;28.52;98232.27;1771783;80;20947;-80
2021/10/03 11:11:09;;;;;;;7.00;5.08;;;;;;;29.26;30.43;98236.44;1779213;80;21394;-81
2021/10/03 11:13:47;;;;;;;7.40;4.95;;;;;;;29.79;28.85;98237.81;1778962;80;21020;-81
2021/10/03 11:16:39;;;;;;;5.30;4.03;;;;;;;30.00;26.70;98234.67;1781460;80;20990;-81
2021/10/03 11:19:26;;;;;;;7.15;4.22;;;;;;;29.84;25.52;98231.34;1782759;80;21484;-81
2021/10/03 11:21:55;;;;;;;7.35;4.67;;;;;;;30.27;28.46;98227.80;1738438;81;20986;-81
2021/10/03 11:24:32;;;;;;;7.92;4.58;;;;;;;30.59;26.83;98219.30;1753330;82;21049;-80
2021/10/03 11:27:07;;;;;;;6.92;4.60;;;;;;;31.16;27.05;98212.66;1753380;82;20981;-81
2021/10/03 11:29:43;;;;;;;6.25;4.60;;;;;;;31.71;27.47;98219.26;1732229;80;20974;-81
2021/10/03 11:32:17;;;;;;;8.25;4.58;;;;;;;31.34;26.63;98211.13;1780031;80;21045;-81
2021/10/03 11:35:06;;;;;;;6.60;5.15;;;;;;;30.25;25.95;98220.25;1769706;81;21028;-81
2021/10/03 11:37:40;;;;;;;7.70;4.53;;;;;;;29.24;27.47;98220.22;1750661;82;21007;-81
2021/10/03 11:40:15;;;;;;;6.95;4.95;;;;;;;28.32;28.87;98205.44;1756882;82;21032;-80